Time;durP1;ratioP1;P1;durP2;ratioP2;P2;SDS_P1;SDS_P2;PMS_P1;PMS_P2;Temp;Humidity;BMP_temperature;BMP_pressure;BME280_temperature;BME280_humidity;BME280_pressure;Samples;Min_cycle;Max_cycle;Signal;HPM_P1;HPM_P2
2023/09/21 00:00:18;;;;;;;4.53;1.95;;;20.10;99.90;;;;;;4184415;28;20055;-72
2023/09/21 00:02:18;;;;;;;3.22;1.75;;;20.00;99.90;;;;;;4174386;28;20086;-72
2023/09/21 00:04:19;;;;;;;3.28;1.88;;;20.00;99.90;;;;;;4181154;28;20021;-70
2023/09/21 00:06:20;;;;;;;3.25;1.92;;;20.00;99.90;;;;;;4174440;28;20038;-71
2023/09/21 00:08:22;;;;;;;4.03;1.92;;;20.00;99.90;;;;;;4176320;28;20037;-72
2023/09/21 00:10:23;;;;;;;3.53;1.83;;;20.00;99.90;;;;;;4180312;28;20045;-72
2023/09/21 00:12:24;;;;;;;3.13;1.52;;;19.90;99.90;;;;;;4191944;28;20044;-72
2023/09/21 00:14:24;;;;;;;2.28;1.70;;;20.00;99.90;;;;;;4179565;28;20512;-72
2023/09/21 00:16:27;;;;;;;3.33;1.88;;;20.00;99.90;;;;;;4165387;28;20045;-71
2023/09/21 00:18:29;;;;;;;3.15;1.40;;;20.00;99.90;;;;;;4183789;28;20124;-72
2023/09/21 00:20:53;;;;;;;4.60;1.90;;;20.00;99.90;;;;;;4173564;28;20063;-72
2023/09/21 00:22:53;;;;;;;2.65;1.67;;;20.00;99.90;;;;;;4174321;28;20034;-71
2023/09/21 00:24:53;;;;;;;;;;;19.90;99.90;;;;;;4163333;28;20029;-72
2023/09/21 00:26:54;;;;;;;3.70;1.63;;;19.90;99.90;;;;;;4177582;28;20378;-70
2023/09/21 00:28:54;;;;;;;2.63;1.25;;;19.90;99.90;;;;;;4167501;28;20040;-72
2023/09/21 00:30:57;;;;;;;5.15;1.95;;;19.90;99.90;;;;;;4163899;28;20033;-66
2023/09/21 00:32:58;;;;;;;;;;;19.90;99.90;;;;;;4171549;28;20541;-68
2023/09/21 00:34:58;;;;;;;2.17;1.60;;;19.90;99.90;;;;;;4172674;28;19909;-66
2023/09/21 00:36:59;;;;;;;3.45;1.80;;;19.90;99.90;;;;;;4166952;28;20037;-67
2023/09/21 00:38:59;;;;;;;6.00;1.90;;;19.80;99.90;;;;;;4153329;28;20033;-68
2023/09/21 00:41:00;;;;;;;3.63;1.88;;;19.80;99.90;;;;;;4182669;28;20044;-68
2023/09/21 00:43:06;;;;;;;5.25;2.05;;;19.90;99.90;;;;;;4177710;28;20090;-66
2023/09/21 00:45:08;;;;;;;2.97;1.70;;;19.90;99.90;;;;;;4177032;28;20158;-67
2023/09/21 00:47:09;;;;;;;3.67;1.75;;;19.90;99.90;;;;;;4174011;28;20052;-66
2023/09/21 00:49:12;;;;;;;3.30;1.85;;;19.80;99.90;;;;;;4167607;28;20079;-66
2023/09/21 00:51:13;;;;;;;;;;;19.80;99.90;;;;;;4175274;28;20041;-65
2023/09/21 00:53:14;;;;;;;4.47;1.90;;;19.80;99.90;;;;;;4179021;28;19913;-65
2023/09/21 00:55:21;;;;;;;3.75;1.90;;;19.80;99.90;;;;;;4182735;28;20040;-66
2023/09/21 00:57:22;;;;;;;4.18;2.13;;;19.80;99.90;;;;;;4163486;28;20048;-66
2023/09/21 00:59:23;;;;;;;2.17;1.50;;;19.80;99.90;;;;;;4179308;28;20165;-66
2023/09/21 01:01:31;;;;;;;4.68;2.15;;;19.80;99.90;;;;;;4180501;28;20059;-66
2023/09/21 01:03:37;;;;;;;4.50;1.80;;;19.80;99.90;;;;;;4178055;28;20036;-66
2023/09/21 01:05:42;;;;;;;5.28;1.90;;;19.80;99.90;;;;;;4172629;28;20384;-65
2023/09/21 01:07:43;;;;;;;3.05;1.70;;;19.70;99.90;;;;;;4190032;28;20165;-65
2023/09/21 01:09:45;;;;;;;2.97;1.80;;;19.80;99.90;;;;;;4177925;28;20030;-65
2023/09/21 01:11:46;;;;;;;3.05;1.60;;;19.80;99.90;;;;;;4167715;28;20032;-66
2023/09/21 01:13:49;;;;;;;3.15;1.77;;;19.80;99.90;;;;;;4176577;28;20084;-66
2023/09/21 01:16:04;;;;;;;4.63;2.03;;;19.80;99.90;;;;;;4166111;28;20032;-66
2023/09/21 01:18:09;;;;;;;4.20;2.17;;;19.80;99.90;;;;;;4189263;28;20107;-66
2023/09/21 01:20:29;;;;;;;3.33;1.90;;;19.80;99.90;;;;;;4173227;28;20513;-67
2023/09/21 01:22:31;;;;;;;2.55;1.58;;;19.70;99.90;;;;;;4176318;28;20112;-66
2023/09/21 01:24:32;;;;;;;3.53;2.10;;;19.70;99.90;;;;;;4183400;28;20443;-65
2023/09/21 01:26:32;;;;;;;3.50;1.77;;;19.80;99.90;;;;;;4160391;28;20044;-66
2023/09/21 01:28:33;;;;;;;3.72;1.83;;;19.70;99.90;;;;;;4160969;28;20114;-66
2023/09/21 01:30:34;;;;;;;2.15;1.50;;;19.70;99.90;;;;;;4168263;28;20051;-69
2023/09/21 01:32:35;;;;;;;5.07;2.05;;;19.70;99.90;;;;;;4172673;28;20495;-66
2023/09/21 01:34:38;;;;;;;2.95;1.63;;;19.80;99.90;;;;;;4175214;28;20029;-66
2023/09/21 01:36:38;;;;;;;2.40;1.60;;;19.70;99.90;;;;;;4173676;28;20510;-65
2023/09/21 01:38:43;;;;;;;3.20;1.70;;;19.70;99.90;;;;;;4170235;28;20037;-68
2023/09/21 01:40:46;;;;;;;6.47;1.80;;;19.80;99.90;;;;;;4175764;28;20117;-71
2023/09/21 01:42:48;;;;;;;2.25;1.52;;;19.70;99.90;;;;;;4183080;28;20029;-66
2023/09/21 01:44:49;;;;;;;4.68;1.60;;;19.70;99.90;;;;;;4183367;28;20039;-66
2023/09/21 01:46:50;;;;;;;2.80;1.67;;;19.70;99.90;;;;;;4189116;28;20040;-66
2023/09/21 01:48:51;;;;;;;2.10;1.55;;;19.70;99.90;;;;;;4177716;28;20500;-69
2023/09/21 01:50:52;;;;;;;2.92;1.90;;;19.70;99.90;;;;;;4177791;28;20037;-66
2023/09/21 01:52:54;;;;;;;2.22;1.30;;;19.70;99.90;;;;;;4171496;28;20395;-66
2023/09/21 01:54:55;;;;;;;2.28;1.70;;;19.60;99.90;;;;;;4181629;28;20490;-66
2023/09/21 01:56:56;;;;;;;4.00;1.80;;;19.60;99.90;;;;;;4178796;28;20037;-66
2023/09/21 01:58:58;;;;;;;2.42;1.60;;;19.60;99.90;;;;;;4179256;28;20025;-66
2023/09/21 02:00:59;;;;;;;2.88;1.58;;;19.60;99.90;;;;;;4159388;28;20041;-67
2023/09/21 02:03:03;;;;;;;3.10;1.95;;;19.60;99.90;;;;;;4173414;28;20044;-66
2023/09/21 02:05:04;;;;;;;1.80;1.58;;;19.50;99.90;;;;;;4184554;28;20064;-67
2023/09/21 02:07:04;;;;;;;3.47;1.75;;;19.60;99.90;;;;;;4174160;28;20033;-66
2023/09/21 02:09:05;;;;;;;3.13;1.58;;;19.60;99.90;;;;;;4167119;28;20063;-68
2023/09/21 02:11:06;;;;;;;6.97;1.98;;;19.50;99.90;;;;;;4173706;28;20053;-67
2023/09/21 02:13:07;;;;;;;2.50;1.58;;;19.50;99.90;;;;;;4181395;28;20443;-67
2023/09/21 02:15:12;;;;;;;3.53;1.88;;;19.50;99.90;;;;;;4187431;28;20036;-65
2023/09/21 02:17:12;;;;;;;2.80;1.73;;;19.50;99.90;;;;;;4182202;28;20112;-66
2023/09/21 02:19:14;;;;;;;3.08;1.60;;;19.40;99.90;;;;;;4177064;28;20036;-66
2023/09/21 02:21:17;;;;;;;2.20;1.45;;;19.40;99.90;;;;;;4168848;28;20037;-65
2023/09/21 02:23:17;;;;;;;3.15;1.90;;;19.40;99.90;;;;;;4188780;28;20119;-66
2023/09/21 02:25:19;;;;;;;3.20;1.70;;;19.40;99.90;;;;;;4178236;28;20049;-66
2023/09/21 02:27:21;;;;;;;3.42;1.92;;;19.40;99.90;;;;;;4174125;28;20025;-65
2023/09/21 02:29:22;;;;;;;2.60;1.83;;;19.40;99.90;;;;;;4179411;28;20049;-68
2023/09/21 02:31:23;;;;;;;2.60;1.73;;;19.40;99.90;;;;;;4177272;28;20037;-72
2023/09/21 02:33:23;;;;;;;2.80;1.70;;;19.40;99.90;;;;;;4176582;28;20509;-71
2023/09/21 02:35:27;;;;;;;3.33;1.40;;;19.40;99.90;;;;;;4190995;28;20037;-71
2023/09/21 02:37:28;;;;;;;3.97;1.92;;;19.40;99.90;;;;;;4179080;28;20552;-72
2023/09/21 02:39:28;;;;;;;1.70;1.52;;;19.40;99.90;;;;;;4172706;28;20029;-72
2023/09/21 02:41:29;;;;;;;6.85;1.63;;;19.30;99.90;;;;;;4170212;28;20060;-72
2023/09/21 02:43:29;;;;;;;3.67;1.67;;;19.40;99.90;;;;;;4182497;28;20118;-72
2023/09/21 02:45:31;;;;;;;2.53;1.55;;;19.30;99.90;;;;;;4177360;28;20049;-72
2023/09/21 02:47:32;;;;;;;2.58;1.73;;;19.30;99.90;;;;;;4189857;28;20036;-70
2023/09/21 02:49:32;;;;;;;4.50;1.70;;;19.30;99.90;;;;;;4170946;28;20099;-71
2023/09/21 02:51:33;;;;;;;2.25;1.50;;;19.30;99.90;;;;;;4188335;28;20040;-65
2023/09/21 02:53:34;;;;;;;2.63;1.77;;;19.30;99.90;;;;;;4174946;28;20043;-66
2023/09/21 02:55:36;;;;;;;2.55;1.40;;;19.40;99.90;;;;;;4164315;28;20057;-67
2023/09/21 02:57:37;;;;;;;3.13;1.70;;;19.40;99.90;;;;;;4184164;28;20086;-66
2023/09/21 02:59:38;;;;;;;1.60;1.20;;;19.30;99.90;;;;;;4177037;28;20083;-66
2023/09/21 03:01:38;;;;;;;3.40;1.80;;;19.30;99.90;;;;;;4178362;28;20124;-69
2023/09/21 03:03:39;;;;;;;2.75;1.55;;;19.30;99.90;;;;;;4181447;28;20516;-65
2023/09/21 03:05:47;;;;;;;3.28;1.58;;;19.30;99.90;;;;;;4175980;28;20063;-65
2023/09/21 03:07:48;;;;;;;3.35;1.75;;;19.30;99.90;;;;;;4179052;28;20033;-65
2023/09/21 03:09:48;;;;;;;6.13;2.15;;;19.30;99.90;;;;;;4178662;28;20051;-66
2023/09/21 03:11:49;;;;;;;3.30;1.55;;;19.30;99.90;;;;;;4176122;28;20031;-66
2023/09/21 03:13:50;;;;;;;3.25;1.80;;;19.30;99.90;;;;;;4167643;28;20102;-66
2023/09/21 03:15:54;;;;;;;2.58;1.50;;;19.30;99.90;;;;;;4167580;28;20421;-66
2023/09/21 03:17:55;;;;;;;1.95;1.40;;;19.20;99.90;;;;;;4180300;28;20021;-65
2023/09/21 03:19:56;;;;;;;2.67;1.80;;;19.30;99.90;;;;;;4181878;28;20075;-66
2023/09/21 03:21:57;;;;;;;3.20;1.40;;;19.30;99.90;;;;;;4186751;28;20555;-66
2023/09/21 03:23:57;;;;;;;2.90;1.98;;;19.30;99.90;;;;;;4188227;28;20036;-66
2023/09/21 03:25:58;;;;;;;2.22;1.40;;;19.30;99.90;;;;;;4186363;28;20036;-66
2023/09/21 03:28:15;;;;;;;2.85;1.90;;;19.30;99.90;;;;;;4176190;28;20038;-66
2023/09/21 03:30:16;;;;;;;2.70;1.50;;;19.30;99.90;;;;;;4179069;28;20040;-66
2023/09/21 03:32:17;;;;;;;4.07;1.80;;;19.20;99.90;;;;;;4174748;28;20494;-65
2023/09/21 03:34:18;;;;;;;4.22;1.90;;;19.20;99.90;;;;;;4177799;28;21589;-66
2023/09/21 03:36:20;;;;;;;1.88;1.48;;;19.20;99.90;;;;;;4173295;28;20044;-65
2023/09/21 03:38:21;;;;;;;2.30;1.70;;;19.20;99.90;;;;;;4176070;28;20083;-65
2023/09/21 03:40:21;;;;;;;4.70;1.70;;;19.20;99.90;;;;;;4174207;28;20090;-66
2023/09/21 03:42:23;;;;;;;3.08;1.80;;;19.20;99.90;;;;;;4186336;28;20479;-66
2023/09/21 03:44:23;;;;;;;2.80;1.77;;;19.20;99.90;;;;;;4170413;28;20045;-67
2023/09/21 03:46:25;;;;;;;2.63;1.73;;;19.20;99.90;;;;;;4172589;28;20166;-66
2023/09/21 03:48:25;;;;;;;2.08;1.55;;;19.20;99.90;;;;;;4181626;28;20037;-66
2023/09/21 03:50:27;;;;;;;4.43;1.90;;;19.20;99.90;;;;;;4182151;28;20713;-69
2023/09/21 03:52:28;;;;;;;2.63;1.58;;;19.10;99.90;;;;;;4192428;28;20485;-67
2023/09/21 03:54:29;;;;;;;3.47;1.85;;;19.20;99.90;;;;;;4208104;28;20039;-69
2023/09/21 03:56:29;;;;;;;5.07;1.95;;;19.20;99.90;;;;;;4187981;28;20111;-66
2023/09/21 03:58:30;;;;;;;4.32;1.90;;;19.20;99.90;;;;;;4173812;28;20108;-66
2023/09/21 04:02:34;;;;;;;6.35;2.17;;;19.20;99.90;;;;;;4175711;28;20159;-71
2023/09/21 04:04:36;;;;;;;7.93;1.70;;;19.20;99.90;;;;;;4166558;28;20425;-71
2023/09/21 04:06:37;;;;;;;3.92;2.08;;;19.20;99.90;;;;;;4173482;28;20550;-71
2023/09/21 04:08:38;;;;;;;2.58;1.67;;;19.20;99.90;;;;;;4174775;28;20083;-72
2023/09/21 04:10:40;;;;;;;2.25;1.42;;;19.20;99.90;;;;;;4167759;28;20044;-71
2023/09/21 04:12:44;;;;;;;5.78;1.80;;;19.20;99.90;;;;;;4167854;28;20121;-71
2023/09/21 04:14:45;;;;;;;5.57;1.90;;;19.30;99.90;;;;;;4175563;28;20551;-71
2023/09/21 04:16:46;;;;;;;3.50;1.80;;;19.20;99.90;;;;;;4183828;28;20060;-71
2023/09/21 04:18:47;;;;;;;3.60;1.90;;;19.30;99.90;;;;;;4183723;28;20525;-71
2023/09/21 04:20:48;;;;;;;4.10;1.85;;;19.30;99.90;;;;;;4182282;28;20037;-72
2023/09/21 04:22:50;;;;;;;2.33;1.73;;;19.20;99.90;;;;;;4181867;28;20123;-72
2023/09/21 04:24:51;;;;;;;2.40;1.55;;;19.20;99.90;;;;;;4185805;28;20033;-72
2023/09/21 04:26:52;;;;;;;4.38;1.60;;;19.30;99.90;;;;;;4184502;28;20056;-71
2023/09/21 04:28:53;;;;;;;2.30;1.63;;;19.30;99.90;;;;;;4180798;28;20482;-72
2023/09/21 04:30:53;;;;;;;4.00;1.85;;;19.30;99.90;;;;;;4181886;28;20036;-71
2023/09/21 04:32:55;;;;;;;2.80;1.70;;;19.30;99.90;;;;;;4177299;28;20040;-72
2023/09/21 04:34:58;;;;;;;2.87;1.67;;;19.30;99.90;;;;;;4168266;28;20064;-71
2023/09/21 04:36:58;;;;;;;;;;;19.30;99.90;;;;;;4167019;28;20471;-71
2023/09/21 04:39:01;;;;;;;3.13;1.85;;;19.30;99.90;;;;;;4166398;28;19966;-72
2023/09/21 04:41:02;;;;;;;2.40;1.65;;;19.30;99.90;;;;;;4171878;28;20041;-71
2023/09/21 04:43:03;;;;;;;4.05;1.63;;;19.40;99.90;;;;;;4183247;28;20060;-70
2023/09/21 04:45:09;;;;;;;2.40;1.30;;;19.30;99.90;;;;;;4167668;28;20055;-69
2023/09/21 04:47:10;;;;;;;2.42;1.98;;;19.30;99.90;;;;;;4179304;28;20048;-70
2023/09/21 04:49:10;;;;;;;5.55;2.03;;;19.30;99.90;;;;;;4186304;28;20036;-72
2023/09/21 04:51:14;;;;;;;3.40;1.60;;;19.30;99.90;;;;;;4158204;28;20052;-70
2023/09/21 04:53:15;;;;;;;5.57;2.03;;;19.30;99.90;;;;;;4159401;28;20119;-73
2023/09/21 04:55:17;;;;;;;4.53;2.00;;;19.30;99.90;;;;;;4165114;28;20036;-72
2023/09/21 04:57:18;;;;;;;7.45;1.95;;;19.30;99.90;;;;;;4157978;28;20115;-73
2023/09/21 04:59:20;;;;;;;2.87;1.60;;;19.30;99.90;;;;;;4168911;28;20111;-73
2023/09/21 05:01:24;;;;;;;3.80;1.80;;;19.30;99.90;;;;;;4165320;28;20585;-71
2023/09/21 05:03:24;;;;;;;2.72;1.50;;;19.30;99.90;;;;;;4184065;28;20068;-72
2023/09/21 05:05:29;;;;;;;5.18;1.95;;;19.30;99.90;;;;;;4182863;28;20036;-72
2023/09/21 05:07:30;;;;;;;4.40;2.08;;;19.30;99.90;;;;;;4184855;28;20687;-73
2023/09/21 05:09:31;;;;;;;2.78;1.48;;;19.30;99.90;;;;;;4183822;28;20036;-72
2023/09/21 05:11:38;;;;;;;2.22;1.52;;;19.30;99.90;;;;;;4177136;28;20063;-64
2023/09/21 05:13:40;;;;;;;3.20;2.00;;;19.30;99.90;;;;;;4162881;28;20075;-66
2023/09/21 05:15:40;;;;;;;2.95;1.50;;;19.30;99.90;;;;;;4179497;28;20032;-66
2023/09/21 05:17:42;;;;;;;3.35;1.67;;;19.30;99.90;;;;;;4168595;28;20402;-65
2023/09/21 05:19:42;;;;;;;4.28;1.90;;;19.30;99.90;;;;;;4169802;28;20396;-64
2023/09/21 05:21:43;;;;;;;2.45;1.83;;;19.30;99.90;;;;;;4181031;28;20040;-65
2023/09/21 05:23:45;;;;;;;3.30;2.20;;;19.30;99.90;;;;;;4178080;28;20048;-65
2023/09/21 05:25:45;;;;;;;3.20;1.70;;;19.30;99.90;;;;;;4171681;28;20494;-65
2023/09/21 05:27:46;;;;;;;3.55;1.83;;;19.30;99.90;;;;;;4177251;28;20033;-64
2023/09/21 05:29:47;;;;;;;6.50;2.05;;;19.30;99.90;;;;;;4176670;28;20040;-65
2023/09/21 05:31:51;;;;;;;2.97;1.80;;;19.30;99.90;;;;;;4178396;28;20471;-64
2023/09/21 05:33:52;;;;;;;3.63;1.55;;;19.30;99.90;;;;;;4183746;28;20157;-65
2023/09/21 05:35:54;;;;;;;2.97;1.73;;;19.30;99.90;;;;;;4167150;28;20495;-69
2023/09/21 05:37:54;;;;;;;3.87;1.67;;;19.40;99.90;;;;;;4180829;28;20024;-66
2023/09/21 05:39:55;;;;;;;3.47;1.92;;;19.40;99.90;;;;;;4177438;28;20733;-65
2023/09/21 05:41:57;;;;;;;3.10;1.83;;;19.40;99.90;;;;;;4175913;28;20502;-64
2023/09/21 05:43:58;;;;;;;7.40;2.05;;;19.40;99.90;;;;;;4179408;28;20041;-65
2023/09/21 05:45:59;;;;;;;4.35;1.80;;;19.40;99.90;;;;;;4181068;28;20140;-65
2023/09/21 05:47:59;;;;;;;3.58;1.80;;;19.40;99.90;;;;;;4180323;28;20051;-66
2023/09/21 05:50:00;;;;;;;4.43;2.00;;;19.40;99.90;;;;;;4178071;28;20041;-65
2023/09/21 05:52:08;;;;;;;4.00;2.03;;;19.40;99.90;;;;;;4163146;28;20449;-66
2023/09/21 05:54:09;;;;;;;7.80;1.73;;;19.40;99.90;;;;;;4171614;28;20748;-65
2023/09/21 05:56:11;;;;;;;3.78;1.98;;;19.40;99.90;;;;;;4179662;28;20056;-65
2023/09/21 05:58:12;;;;;;;2.08;1.60;;;19.40;99.90;;;;;;4156894;28;20040;-65
2023/09/21 06:00:14;;;;;;;2.85;1.80;;;19.40;99.90;;;;;;4151960;28;20021;-69
2023/09/21 06:02:15;;;;;;;2.65;1.73;;;19.40;99.90;;;;;;4153882;28;20045;-66
2023/09/21 06:04:21;;;;;;;3.15;1.98;;;19.40;99.90;;;;;;4164536;28;20529;-66
2023/09/21 06:06:21;;;;;;;3.05;1.58;;;19.40;99.90;;;;;;4171765;28;20041;-67
2023/09/21 06:08:22;;;;;;;4.60;2.03;;;19.40;99.90;;;;;;4181243;28;20097;-65
2023/09/21 06:10:23;;;;;;;3.17;1.80;;;19.40;99.90;;;;;;4178323;28;20409;-65
2023/09/21 06:12:26;;;;;;;3.08;1.77;;;19.50;99.90;;;;;;4178759;28;20033;-65
2023/09/21 06:14:26;;;;;;;4.68;1.90;;;19.50;99.90;;;;;;4181817;28;20051;-65
2023/09/21 06:16:27;;;;;;;3.60;1.92;;;19.50;99.90;;;;;;4177367;28;20028;-66
2023/09/21 06:18:29;;;;;;;4.47;1.77;;;19.60;99.90;;;;;;4173695;28;20102;-65
2023/09/21 06:20:29;;;;;;;2.87;2.00;;;19.60;99.90;;;;;;4177556;28;20036;-65
2023/09/21 06:22:31;;;;;;;3.08;1.95;;;19.60;99.90;;;;;;4178963;28;20449;-68
2023/09/21 06:24:32;;;;;;;3.50;2.15;;;19.60;99.90;;;;;;4176928;28;20044;-68
2023/09/21 06:26:33;;;;;;;3.95;2.03;;;19.70;99.90;;;;;;4176792;28;20040;-68
2023/09/21 06:28:34;;;;;;;4.32;2.58;;;19.80;99.90;;;;;;4178359;28;20112;-68
2023/09/21 06:30:34;;;;;;;7.07;4.00;;;20.00;99.90;;;;;;4175321;28;20041;-68
2023/09/21 06:32:35;;;;;;;8.90;4.50;;;20.10;99.90;;;;;;4180602;28;20706;-68
2023/09/21 06:34:36;;;;;;;11.60;4.43;;;20.20;99.90;;;;;;4178910;28;20037;-68
2023/09/21 06:36:37;;;;;;;6.80;4.10;;;20.20;99.90;;;;;;4179755;28;20040;-67
2023/09/21 06:38:40;;;;;;;5.60;2.72;;;20.30;99.90;;;;;;4179963;28;20057;-68
2023/09/21 06:40:40;;;;;;;7.63;2.50;;;20.40;99.90;;;;;;4177692;28;20033;-68
2023/09/21 06:42:41;;;;;;;2.90;2.05;;;20.40;99.90;;;;;;4180322;28;20031;-68
2023/09/21 06:44:42;;;;;;;4.40;2.63;;;20.40;99.90;;;;;;4178992;28;20106;-68
2023/09/21 06:46:42;;;;;;;4.22;2.22;;;20.50;99.90;;;;;;4177995;28;20041;-68
2023/09/21 06:48:45;;;;;;;2.88;2.10;;;20.50;99.90;;;;;;4179689;28;20505;-67
2023/09/21 06:50:46;;;;;;;5.68;2.80;;;20.50;99.90;;;;;;4178639;28;20037;-68
2023/09/21 06:52:47;;;;;;;4.68;2.25;;;20.60;99.90;;;;;;4178888;28;20028;-68
2023/09/21 06:54:49;;;;;;;4.07;2.17;;;20.70;99.90;;;;;;4179808;28;20476;-68
2023/09/21 06:56:49;;;;;;;2.72;2.00;;;20.80;99.90;;;;;;4177650;28;20028;-68
2023/09/21 06:58:51;;;;;;;3.00;1.98;;;20.80;99.90;;;;;;4179456;28;20111;-68
2023/09/21 07:00:52;;;;;;;4.78;2.50;;;20.90;99.90;;;;;;4179277;28;20667;-68
2023/09/21 07:02:53;;;;;;;5.22;2.30;;;21.10;99.90;;;;;;4182473;28;20040;-67
2023/09/21 07:04:53;;;;;;;5.18;2.10;;;21.30;99.90;;;;;;4179410;28;20117;-68
2023/09/21 07:06:54;;;;;;;3.75;2.15;;;21.50;99.90;;;;;;4177258;28;20045;-68
2023/09/21 07:08:56;;;;;;;3.47;2.20;;;21.60;99.90;;;;;;4182541;28;20419;-68
2023/09/21 07:10:57;;;;;;;4.28;2.13;;;21.80;99.90;;;;;;4177814;28;20094;-68
2023/09/21 07:12:58;;;;;;;3.85;2.00;;;22.00;99.90;;;;;;4177084;28;20446;-68
2023/09/21 07:14:59;;;;;;;4.30;2.10;;;22.20;99.90;;;;;;4177721;28;20033;-68
2023/09/21 07:16:59;;;;;;;3.58;2.13;;;22.40;99.90;;;;;;4175140;28;20551;-68
2023/09/21 07:19:00;;;;;;;7.30;2.20;;;22.50;99.90;;;;;;4179792;28;20123;-67
2023/09/21 07:21:00;;;;;;;4.60;1.83;;;22.70;99.90;;;;;;4177766;28;20040;-67
2023/09/21 07:23:01;;;;;;;2.97;1.85;;;22.90;99.90;;;;;;4184801;28;20065;-68
2023/09/21 07:25:03;;;;;;;3.30;2.00;;;23.10;99.90;;;;;;4178642;28;20549;-68
2023/09/21 07:27:06;;;;;;;3.45;1.75;;;23.20;99.90;;;;;;4180146;28;20037;-68
2023/09/21 07:29:06;;;;;;;6.25;1.73;;;23.40;99.90;;;;;;4176365;28;20119;-68
2023/09/21 07:31:09;;;;;;;4.05;2.05;;;23.50;99.90;;;;;;4178293;28;20074;-67
2023/09/21 07:33:09;;;;;;;3.00;1.90;;;23.60;99.90;;;;;;4172030;28;20029;-66
2023/09/21 07:35:10;;;;;;;3.78;1.90;;;23.80;99.90;;;;;;4180344;28;20047;-68
2023/09/21 07:37:12;;;;;;;2.60;1.65;;;23.80;99.90;;;;;;4182436;28;20027;-66
2023/09/21 07:39:17;;;;;;;2.92;1.98;;;23.90;99.90;;;;;;4182753;28;20044;-66
2023/09/21 07:41:17;;;;;;;3.15;2.00;;;23.90;99.90;;;;;;4176826;28;20510;-66
2023/09/21 07:43:18;;;;;;;3.40;2.00;;;23.90;99.90;;;;;;4181133;28;20033;-66
2023/09/21 07:45:22;;;;;;;5.65;1.80;;;24.10;99.90;;;;;;4178843;28;20045;-68
2023/09/21 07:47:22;;;;;;;3.72;1.73;;;24.10;99.90;;;;;;4176464;28;20041;-65
2023/09/21 07:49:25;;;;;;;4.15;2.00;;;24.20;99.90;;;;;;4156344;28;20518;-65
2023/09/21 07:51:26;;;;;;;11.60;2.20;;;24.30;99.90;;;;;;4175012;28;20037;-64
2023/09/21 07:53:27;;;;;;;3.65;1.90;;;24.20;99.90;;;;;;4180311;28;20147;-66
2023/09/21 07:55:27;;;;;;;3.30;1.98;;;24.20;99.90;;;;;;4178222;28;20037;-66
2023/09/21 07:57:39;;;;;;;2.75;1.75;;;24.30;99.90;;;;;;4179671;28;20175;-65
2023/09/21 07:59:40;;;;;;;4.90;2.20;;;24.50;99.90;;;;;;4178557;28;20110;-66
2023/09/21 08:01:41;;;;;;;3.10;1.70;;;24.60;99.90;;;;;;4178399;28;20083;-67
2023/09/21 08:03:41;;;;;;;4.35;1.90;;;24.70;99.90;;;;;;4176467;28;20108;-67
2023/09/21 08:05:42;;;;;;;3.28;1.92;;;24.70;99.90;;;;;;4177522;28;20040;-65
2023/09/21 08:07:43;;;;;;;5.90;1.77;;;24.80;99.90;;;;;;4181504;28;20040;-66
2023/09/21 08:09:43;;;;;;;5.32;2.17;;;24.70;99.90;;;;;;4180672;28;20087;-66
2023/09/21 08:11:44;;;;;;;4.97;1.77;;;24.60;99.90;;;;;;4180585;28;20469;-65
2023/09/21 08:13:45;;;;;;;4.15;2.10;;;24.60;99.90;;;;;;4179421;28;20044;-64
2023/09/21 08:15:46;;;;;;;3.60;2.08;;;24.40;99.90;;;;;;4180232;28;20025;-65
2023/09/21 08:17:47;;;;;;;5.22;2.20;;;24.40;99.90;;;;;;4180146;28;20055;-68
2023/09/21 08:19:47;;;;;;;3.78;1.58;;;24.30;99.90;;;;;;4151326;28;20033;-65
2023/09/21 08:21:48;;;;;;;2.90;1.67;;;24.40;99.90;;;;;;4179846;28;20482;-65
2023/09/21 08:23:49;;;;;;;4.00;2.20;;;24.50;99.90;;;;;;4177923;28;20029;-65
2023/09/21 08:25:49;;;;;;;2.30;1.73;;;24.30;99.90;;;;;;4179208;28;20036;-66
2023/09/21 08:27:50;;;;;;;2.40;1.70;;;24.30;99.90;;;;;;4182356;28;20044;-66
2023/09/21 08:29:51;;;;;;;3.42;1.80;;;24.30;99.90;;;;;;4178245;28;20025;-65
2023/09/21 08:31:51;;;;;;;3.28;1.90;;;24.30;99.90;;;;;;4179553;28;20509;-66
2023/09/21 08:33:52;;;;;;;2.95;1.80;;;24.30;99.90;;;;;;4181989;28;20029;-66
2023/09/21 08:35:53;;;;;;;2.58;1.55;;;24.20;99.90;;;;;;4180994;28;20082;-66
2023/09/21 08:37:53;;;;;;;5.40;2.15;;;24.10;99.90;;;;;;4180076;28;20500;-65
2023/09/21 08:39:54;;;;;;;3.10;1.98;;;24.00;99.90;;;;;;4174934;28;20059;-65
2023/09/21 08:41:54;;;;;;;4.72;1.95;;;23.90;99.90;;;;;;4178759;28;20029;-65
2023/09/21 08:43:56;;;;;;;1.83;1.40;;;23.80;99.90;;;;;;4178353;28;20110;-66
2023/09/21 08:45:57;;;;;;;4.97;1.65;;;23.70;99.90;;;;;;4178890;28;20123;-65
2023/09/21 08:47:58;;;;;;;4.47;1.80;;;23.60;99.90;;;;;;4178273;28;20702;-66
2023/09/21 08:50:00;;;;;;;9.40;1.73;;;23.50;99.90;;;;;;4178649;28;20065;-65
2023/09/21 08:52:02;;;;;;;;;;;23.50;99.90;;;;;;4179958;28;20037;-65
2023/09/21 08:54:06;;;;;;;2.50;1.55;;;23.50;99.90;;;;;;4179909;28;19921;-66
2023/09/21 08:56:08;;;;;;;4.97;2.33;;;23.30;99.90;;;;;;4176811;28;20044;-65
2023/09/21 08:58:11;;;;;;;2.15;1.63;;;23.30;99.90;;;;;;4178852;28;20498;-67
2023/09/21 09:00:13;;;;;;;3.20;1.70;;;23.20;99.90;;;;;;4179863;28;20028;-66
2023/09/21 09:02:15;;;;;;;2.45;1.67;;;23.20;99.90;;;;;;4182175;28;20036;-68
2023/09/21 09:04:15;;;;;;;2.40;1.77;;;23.10;99.90;;;;;;4179401;28;20087;-66
2023/09/21 09:06:16;;;;;;;3.70;1.80;;;23.20;99.90;;;;;;4179769;28;22054;-66
2023/09/21 09:08:17;;;;;;;4.15;1.45;;;23.20;99.90;;;;;;4181641;28;20395;-66
2023/09/21 09:10:18;;;;;;;6.78;2.13;;;23.20;99.90;;;;;;4181462;28;20119;-66
2023/09/21 09:12:25;;;;;;;3.67;1.83;;;23.20;99.90;;;;;;4177272;28;20053;-66
2023/09/21 09:14:26;;;;;;;4.85;1.90;;;23.20;99.90;;;;;;4180125;28;20099;-65
2023/09/21 09:16:28;;;;;;;2.72;1.70;;;23.20;99.90;;;;;;4178759;28;20067;-66
2023/09/21 09:18:29;;;;;;;3.85;1.55;;;23.20;99.90;;;;;;4172336;28;20056;-66
2023/09/21 09:20:30;;;;;;;3.20;1.75;;;23.30;99.90;;;;;;4160968;28;20999;-66
2023/09/21 09:22:31;;;;;;;3.55;1.70;;;23.20;99.90;;;;;;4165707;28;20053;-66
2023/09/21 09:24:33;;;;;;;2.78;1.65;;;23.10;99.90;;;;;;4163661;28;20041;-65
2023/09/21 09:26:35;;;;;;;4.13;1.80;;;23.20;99.90;;;;;;4162406;28;20049;-67
2023/09/21 09:28:36;;;;;;;;;;;23.10;99.90;;;;;;4167130;28;20037;-65
2023/09/21 09:30:37;;;;;;;2.40;1.35;;;23.10;99.90;;;;;;4163141;28;20271;-65
2023/09/21 09:32:41;;;;;;;3.67;1.55;;;22.90;99.90;;;;;;4162874;28;20124;-71
2023/09/21 09:34:44;;;;;;;4.05;1.80;;;23.00;99.90;;;;;;4177796;28;20036;-72
2023/09/21 09:36:51;;;;;;;2.88;1.50;;;23.00;99.90;;;;;;4185773;28;20032;-72
2023/09/21 09:38:52;;;;;;;4.63;1.98;;;23.00;99.90;;;;;;4180955;28;20036;-73
2023/09/21 09:40:56;;;;;;;3.42;1.40;;;23.00;99.90;;;;;;4182151;28;20390;-73
2023/09/21 09:42:57;;;;;;;2.80;1.48;;;23.00;99.90;;;;;;4177693;28;20478;-73
2023/09/21 09:45:03;;;;;;;1.90;1.33;;;23.00;99.90;;;;;;4176902;28;20049;-72
2023/09/21 09:47:09;;;;;;;2.40;1.55;;;23.00;99.90;;;;;;4175892;28;20132;-73
2023/09/21 09:49:10;;;;;;;2.40;1.58;;;23.00;99.90;;;;;;4182516;28;20069;-71
2023/09/21 09:51:16;;;;;;;2.67;1.65;;;23.00;99.90;;;;;;4182657;28;21393;-67
2023/09/21 09:53:19;;;;;;;2.55;1.48;;;23.00;99.90;;;;;;4179520;28;21147;-67
2023/09/21 09:55:25;;;;;;;4.43;1.60;;;22.90;99.90;;;;;;4180225;28;20025;-66
2023/09/21 09:57:28;;;;;;;3.03;1.30;;;22.90;99.90;;;;;;4180061;28;20048;-65
2023/09/21 09:59:30;;;;;;;2.83;1.40;;;22.90;99.90;;;;;;4179700;28;20033;-65
2023/09/21 10:01:33;;;;;;;4.07;1.90;;;22.80;99.90;;;;;;4180674;28;20086;-65
2023/09/21 10:03:35;;;;;;;2.38;1.40;;;22.80;99.90;;;;;;4177311;28;20149;-65
2023/09/21 10:05:36;;;;;;;3.50;1.33;;;22.80;99.90;;;;;;4171114;28;20033;-66
2023/09/21 10:07:37;;;;;;;3.80;1.40;;;22.80;99.90;;;;;;4180269;28;20725;-66
2023/09/21 10:09:37;;;;;;;2.05;1.13;;;22.90;99.90;;;;;;4179410;28;20086;-65
2023/09/21 10:11:45;;;;;;;2.92;1.50;;;22.90;99.90;;;;;;4175579;28;20033;-65
2023/09/21 10:13:52;;;;;;;7.65;1.50;;;22.90;99.90;;;;;;4178855;28;20137;-65
2023/09/21 10:16:03;;;;;;;4.53;1.30;;;22.80;99.90;;;;;;4182334;28;20033;-66
2023/09/21 10:18:04;;;;;;;2.28;1.33;;;22.80;99.90;;;;;;4179764;28;21520;-66
2023/09/21 10:20:15;;;;;;;3.97;1.80;;;22.80;99.90;;;;;;4174809;28;20033;-67
2023/09/21 10:22:46;;;;;;;2.97;1.52;;;22.80;99.90;;;;;;4164506;28;20033;-66
2023/09/21 10:24:55;;;;;;;3.15;1.40;;;22.90;99.90;;;;;;4172917;28;20021;-65
2023/09/21 10:27:01;;;;;;;3.33;1.60;;;22.90;99.90;;;;;;4162801;28;20037;-65
2023/09/21 10:29:04;;;;;;;2.45;1.42;;;22.90;99.90;;;;;;4160209;28;20124;-65
2023/09/21 10:31:10;;;;;;;2.80;1.30;;;22.90;99.90;;;;;;4160189;28;20047;-65
2023/09/21 10:33:11;;;;;;;2.13;1.27;;;22.90;99.90;;;;;;4178491;28;20130;-65
2023/09/21 10:35:18;;;;;;;2.45;1.40;;;23.00;99.90;;;;;;4179584;28;20042;-66
2023/09/21 10:37:26;;;;;;;2.63;1.52;;;22.90;99.90;;;;;;4176898;28;20120;-66